Tuskahoma, OK (74574)

8:26 PM CDT on July 22, 2014 (GMT -0500)
McAlester Regional (KMLC) Elev 768 ft | 34.88 °N, 95.78 °W | Change Station

Current weather conditions updated 33 minutes ago

Partly Cloudy
Partly Cloudy
88 °F
Feels Like 101 °F
N
0
Wind Variable Wind from North

Tomorrow is forecast to be nearly the same temperature as today. Showers and thunderstorms late.

Today
High -- | Low -- °F
--% Chance of Precip.
Yesterday
High -- | Low -- °F
Precip. -- in
6:23 AM 8:30 PM
Waning Crescent, 14% visible
Pressure 30.02 in
Visibility 10.0 miles
Clouds Clear
Heat Index 101 °F
Dew Point 78 °F
Humidity 72%
Rainfall 0.00 in
Snow Depth Not available.
UV 0 out of 12
Pollen 3.80 out of 12
Air Quality Not available.
Flu Activity Not available.
METAR KMLC 230053Z AUTO 00000KT 10SM CLR 31/26 A3005 RMK AO2 SLP165 T03110256

More Conditions Fewer Conditions

Pressure 30.02 in
Visibility 10.0 miles
Clouds Clear
Heat Index 101 °F
Dew Point 78 °F
Humidity 72%
Rainfall 0.00 in
Snow Depth Not available.
UV 0 out of 12
Pollen 3.80 out of 12
Air Quality Not available.
Flu Activity Not available.
METAR KMLC 230053Z AUTO 00000KT 10SM CLR 31/26 A3005 RMK AO2 SLP165 T03110256

More Conditions Fewer Conditions

10-Day Weather Forecast

Almanac

Astronomy

Jul. 22, 2014 Rise Set
Actual Time 6:23 AM CDT 8:30 PM CDT
Civil Twilight 5:55 AM CDT 8:59 PM CDT
Nautical Twilight 5:20 AM CDT 9:33 PM CDT
Astronomical Twilight 4:43 AM CDT 10:10 PM CDT
Moon 2:56 AM CDT (7/22) 5:10 PM CDT (7/22)
Length of Visible Light 15h 03m
Length of Day
14h 07m
Tomorrow will be 1m 21s shorter.
Waning Crescent, 14% of the Moon is Illuminated
Today
Waning Crescent
Jul 26
New
Aug 3
First Quarter
Aug 10
Full
Aug 17
Last Quarter

Today's Extremes

State Highs State Lows

Community

WunderPhotos

Upload Photos

1,736,423 photos uploaded!

Nearby

Snow Depth

Station Depth Elevation
No new snow has been reported.

Earthquake Activity

City Distance Mag. Time & Date
Harrah, Oklahoma 119 miles 2.8 6:02 PM CDT
2014-07-16
Luther, Oklahoma 128 miles 2.5 9:54 PM CDT
2014-07-15
Minimum magnitude displayed is 2.5.

Coastal Water Temperatures

Place Temperature
No Stations Reporting

Nearby Weather Stations

Station Location Temp. Heat Index Dew Point Humidity Wind Precip. Elev Updated Type
HADS JACK FORK RIVER AT SARDIS LAKE D OK, Clayton, OK 87 °F 95 °F 74 °F 65% SSE  at  4 mph 0.00 in / hr 599 ft 7:00 PM CDT MADIS
RAWS KIAMICHI OK, Talihina, OK 87 °F 92 °F 70 °F 57% ENE  at  3 mph 0.00 in / hr 680 ft 6:59 PM CDT MADIS

Show More Stations Show Fewer Stations